Information Last Ob Photographs Calibration Meteogram Network Table Neighbors 7 Day High/Low Plot Month High/Low Plot Month Rainfall Plot Observation History Wind Roses Custom Wind Roses Data Calendar Download

Most Recent Observation

This application displays the last observation received by the IEM from this site. The time stamp is in America/Chicago timezone.

Observation Local Time22 Mar 2018, 8:54 AM
Observation UTC Time2018-03-22T13:54:00Z
Air Temp [F]35.1
Maximum Air Temperature [F]36
Minimum Air Temperature [F]32
Dew Point [F]30
Wind Direction130
Wind Speed [knots]7
Altimeter [inches]30.32
Raw Observation/ProductKDSM 221354Z 13007KT 7SM -RA BKN047 OVC060 02/M01 A3032 RMK AO2 RAB02SNE02 SLP276 P0002 T00171011

This data was provided by a JSON(P) webservice. You can find more JSON services.